sensor_id;sensor_type;location;lat;lon;timestamp;temperature;humidity
79016;DHT22;72726;44.842;37.556;2023-12-14T00:00:50;5.93;90.80
79016;DHT22;72726;44.842;37.556;2023-12-14T00:01:51;5.91;90.79
79016;DHT22;72726;44.842;37.556;2023-12-14T00:02:53;5.91;90.79
79016;DHT22;72726;44.842;37.556;2023-12-14T00:03:54;5.95;90.93
79016;DHT22;72726;44.842;37.556;2023-12-14T00:04:56;5.97;90.97
79016;DHT22;72726;44.842;37.556;2023-12-14T00:05:57;5.98;90.92
79016;DHT22;72726;44.842;37.556;2023-12-14T00:06:59;6.01;90.83
79016;DHT22;72726;44.842;37.556;2023-12-14T00:08:01;5.99;90.79
79016;DHT22;72726;44.842;37.556;2023-12-14T00:09:02;6.01;90.81
79016;DHT22;72726;44.842;37.556;2023-12-14T00:10:05;6.02;90.94
79016;DHT22;72726;44.842;37.556;2023-12-14T00:11:10;6.07;90.97
79016;DHT22;72726;44.842;37.556;2023-12-14T00:12:12;6.08;91.08
79016;DHT22;72726;44.842;37.556;2023-12-14T00:13:14;6.14;91.09
79016;DHT22;72726;44.842;37.556;2023-12-14T00:14:15;6.12;91.06
79016;DHT22;72726;44.842;37.556;2023-12-14T00:15:17;6.14;91.04
79016;DHT22;72726;44.842;37.556;2023-12-14T00:16:19;6.16;91.04
79016;DHT22;72726;44.842;37.556;2023-12-14T00:17:20;6.18;90.96
79016;DHT22;72726;44.842;37.556;2023-12-14T00:18:22;6.16;90.90
79016;DHT22;72726;44.842;37.556;2023-12-14T00:19:24;6.19;90.92
79016;DHT22;72726;44.842;37.556;2023-12-14T00:20:26;6.21;90.85
79016;DHT22;72726;44.842;37.556;2023-12-14T00:21:27;6.26;90.84
79016;DHT22;72726;44.842;37.556;2023-12-14T00:22:29;6.26;90.80
79016;DHT22;72726;44.842;37.556;2023-12-14T00:23:30;6.30;90.77
79016;DHT22;72726;44.842;37.556;2023-12-14T00:24:32;6.32;90.75
79016;DHT22;72726;44.842;37.556;2023-12-14T00:25:34;6.33;90.70
79016;DHT22;72726;44.842;37.556;2023-12-14T00:26:35;6.35;90.68
79016;DHT22;72726;44.842;37.556;2023-12-14T00:27:37;6.39;90.68
79016;DHT22;72726;44.842;37.556;2023-12-14T00:28:38;6.39;90.65
79016;DHT22;72726;44.842;37.556;2023-12-14T00:29:40;6.42;90.64
79016;DHT22;72726;44.842;37.556;2023-12-14T00:30:41;6.46;90.66
79016;DHT22;72726;44.842;37.556;2023-12-14T00:31:43;6.49;90.64
79016;DHT22;72726;44.842;37.556;2023-12-14T00:32:44;6.54;90.64
79016;DHT22;72726;44.842;37.556;2023-12-14T00:33:46;6.53;90.62
79016;DHT22;72726;44.842;37.556;2023-12-14T00:34:48;6.57;90.75
79016;DHT22;72726;44.842;37.556;2023-12-14T00:35:50;6.62;90.81
79016;DHT22;72726;44.842;37.556;2023-12-14T00:36:52;6.64;90.98
79016;DHT22;72726;44.842;37.556;2023-12-14T00:37:53;6.69;91.02
79016;DHT22;72726;44.842;37.556;2023-12-14T00:38:55;6.73;90.96
79016;DHT22;72726;44.842;37.556;2023-12-14T00:39:58;6.73;90.95
79016;DHT22;72726;44.842;37.556;2023-12-14T00:40:59;6.76;90.83
79016;DHT22;72726;44.842;37.556;2023-12-14T00:42:01;6.73;90.77
79016;DHT22;72726;44.842;37.556;2023-12-14T00:43:02;6.76;90.77
79016;DHT22;72726;44.842;37.556;2023-12-14T00:44:04;6.79;90.63
79016;DHT22;72726;44.842;37.556;2023-12-14T00:45:06;6.80;90.55
79016;DHT22;72726;44.842;37.556;2023-12-14T00:46:08;6.81;90.52
79016;DHT22;72726;44.842;37.556;2023-12-14T00:47:10;6.81;90.49
79016;DHT22;72726;44.842;37.556;2023-12-14T00:48:12;6.83;90.48
79016;DHT22;72726;44.842;37.556;2023-12-14T00:49:14;6.87;90.47
79016;DHT22;72726;44.842;37.556;2023-12-14T00:50:15;6.91;90.47
79016;DHT22;72726;44.842;37.556;2023-12-14T00:51:17;6.91;90.45
79016;DHT22;72726;44.842;37.556;2023-12-14T00:52:18;6.95;90.50
79016;DHT22;72726;44.842;37.556;2023-12-14T00:53:20;6.92;90.47
79016;DHT22;72726;44.842;37.556;2023-12-14T00:54:22;6.94;90.44
79016;DHT22;72726;44.842;37.556;2023-12-14T00:55:23;6.98;90.43
79016;DHT22;72726;44.842;37.556;2023-12-14T00:56:25;6.97;90.43
79016;DHT22;72726;44.842;37.556;2023-12-14T00:57:26;7.00;90.38
79016;DHT22;72726;44.842;37.556;2023-12-14T00:58:28;7.01;90.22
79016;DHT22;72726;44.842;37.556;2023-12-14T00:59:29;6.98;90.12
79016;DHT22;72726;44.842;37.556;2023-12-14T01:00:31;7.00;90.05
79016;DHT22;72726;44.842;37.556;2023-12-14T01:01:33;7.01;89.99
79016;DHT22;72726;44.842;37.556;2023-12-14T01:02:34;7.00;89.93
79016;DHT22;72726;44.842;37.556;2023-12-14T01:03:36;7.01;89.81
79016;DHT22;72726;44.842;37.556;2023-12-14T01:04:38;7.02;89.78
79016;DHT22;72726;44.842;37.556;2023-12-14T01:05:39;7.01;89.83
79016;DHT22;72726;44.842;37.556;2023-12-14T01:06:41;7.02;89.72
79016;DHT22;72726;44.842;37.556;2023-12-14T01:07:42;7.05;89.67
79016;DHT22;72726;44.842;37.556;2023-12-14T01:08:44;7.05;89.63
79016;DHT22;72726;44.842;37.556;2023-12-14T01:09:45;7.07;89.52
79016;DHT22;72726;44.842;37.556;2023-12-14T01:10:47;7.05;89.40
79016;DHT22;72726;44.842;37.556;2023-12-14T01:11:49;7.07;89.42
79016;DHT22;72726;44.842;37.556;2023-12-14T01:12:50;7.04;89.38
79016;DHT22;72726;44.842;37.556;2023-12-14T01:13:52;7.01;89.24
79016;DHT22;72726;44.842;37.556;2023-12-14T01:14:53;7.01;89.15
79016;DHT22;72726;44.842;37.556;2023-12-14T01:15:55;7.00;89.10
79016;DHT22;72726;44.842;37.556;2023-12-14T01:16:57;6.95;89.08
79016;DHT22;72726;44.842;37.556;2023-12-14T01:17:59;6.94;89.06
79016;DHT22;72726;44.842;37.556;2023-12-14T01:19:00;6.94;89.03
79016;DHT22;72726;44.842;37.556;2023-12-14T01:20:06;6.94;89.13
79016;DHT22;72726;44.842;37.556;2023-12-14T01:21:08;6.87;89.21
79016;DHT22;72726;44.842;37.556;2023-12-14T01:22:10;6.91;89.24
79016;DHT22;72726;44.842;37.556;2023-12-14T01:23:12;6.90;89.26
79016;DHT22;72726;44.842;37.556;2023-12-14T01:24:13;6.88;89.20
79016;DHT22;72726;44.842;37.556;2023-12-14T01:25:16;6.87;89.18
79016;DHT22;72726;44.842;37.556;2023-12-14T01:26:17;6.90;89.31
79016;DHT22;72726;44.842;37.556;2023-12-14T01:27:19;6.85;89.27
79016;DHT22;72726;44.842;37.556;2023-12-14T01:28:21;6.85;89.31
79016;DHT22;72726;44.842;37.556;2023-12-14T01:29:22;6.91;89.29
79016;DHT22;72726;44.842;37.556;2023-12-14T01:30:24;6.88;89.34
79016;DHT22;72726;44.842;37.556;2023-12-14T01:31:25;6.90;89.36
79016;DHT22;72726;44.842;37.556;2023-12-14T01:32:27;6.88;89.32
79016;DHT22;72726;44.842;37.556;2023-12-14T01:33:28;6.90;89.34
79016;DHT22;72726;44.842;37.556;2023-12-14T01:34:30;6.87;89.35
79016;DHT22;72726;44.842;37.556;2023-12-14T01:35:32;6.87;89.25
79016;DHT22;72726;44.842;37.556;2023-12-14T01:36:33;6.85;89.23
79016;DHT22;72726;44.842;37.556;2023-12-14T01:37:35;6.85;89.19
79016;DHT22;72726;44.842;37.556;2023-12-14T01:38:36;6.84;89.18
79016;DHT22;72726;44.842;37.556;2023-12-14T01:39:38;6.85;89.17
79016;DHT22;72726;44.842;37.556;2023-12-14T01:40:39;6.85;89.25
79016;DHT22;72726;44.842;37.556;2023-12-14T01:41:41;6.83;89.23
79016;DHT22;72726;44.842;37.556;2023-12-14T01:42:43;6.84;89.23
79016;DHT22;72726;44.842;37.556;2023-12-14T01:43:44;6.83;89.25
79016;DHT22;72726;44.842;37.556;2023-12-14T01:44:46;6.84;89.23
79016;DHT22;72726;44.842;37.556;2023-12-14T01:45:47;6.81;89.19
79016;DHT22;72726;44.842;37.556;2023-12-14T01:46:49;6.80;89.16
79016;DHT22;72726;44.842;37.556;2023-12-14T01:47:51;6.80;89.27
79016;DHT22;72726;44.842;37.556;2023-12-14T01:48:53;6.83;89.25
79016;DHT22;72726;44.842;37.556;2023-12-14T01:49:54;6.81;89.28
79016;DHT22;72726;44.842;37.556;2023-12-14T01:50:56;6.81;89.23
79016;DHT22;72726;44.842;37.556;2023-12-14T01:51:58;6.80;89.32
79016;DHT22;72726;44.842;37.556;2023-12-14T01:52:59;6.83;89.49
79016;DHT22;72726;44.842;37.556;2023-12-14T01:54:01;6.83;89.46
79016;DHT22;72726;44.842;37.556;2023-12-14T01:55:02;6.83;89.58
79016;DHT22;72726;44.842;37.556;2023-12-14T01:56:04;6.84;89.58
79016;DHT22;72726;44.842;37.556;2023-12-14T01:57:06;6.84;89.58
79016;DHT22;72726;44.842;37.556;2023-12-14T01:58:08;6.83;89.59
79016;DHT22;72726;44.842;37.556;2023-12-14T01:59:09;6.87;89.64
79016;DHT22;72726;44.842;37.556;2023-12-14T02:00:37;6.87;89.61
79016;DHT22;72726;44.842;37.556;2023-12-14T02:01:45;6.90;89.68
79016;DHT22;72726;44.842;37.556;2023-12-14T02:02:46;6.92;89.79
79016;DHT22;72726;44.842;37.556;2023-12-14T02:03:51;6.92;89.73
79016;DHT22;72726;44.842;37.556;2023-12-14T02:04:53;6.94;89.66
79016;DHT22;72726;44.842;37.556;2023-12-14T02:05:55;6.94;89.67
79016;DHT22;72726;44.842;37.556;2023-12-14T02:06:59;6.94;89.61
79016;DHT22;72726;44.842;37.556;2023-12-14T02:08:01;6.94;89.63
79016;DHT22;72726;44.842;37.556;2023-12-14T02:09:03;6.95;89.60
79016;DHT22;72726;44.842;37.556;2023-12-14T02:10:05;6.95;89.60
79016;DHT22;72726;44.842;37.556;2023-12-14T02:11:07;6.95;89.63
79016;DHT22;72726;44.842;37.556;2023-12-14T02:12:08;6.95;89.60
79016;DHT22;72726;44.842;37.556;2023-12-14T02:13:10;6.95;89.60
79016;DHT22;72726;44.842;37.556;2023-12-14T02:14:12;6.97;89.60
79016;DHT22;72726;44.842;37.556;2023-12-14T02:15:13;6.97;89.56
79016;DHT22;72726;44.842;37.556;2023-12-14T02:16:15;6.95;89.62
79016;DHT22;72726;44.842;37.556;2023-12-14T02:17:16;6.95;89.63
79016;DHT22;72726;44.842;37.556;2023-12-14T02:18:18;6.95;89.59
79016;DHT22;72726;44.842;37.556;2023-12-14T02:19:19;6.95;89.61
79016;DHT22;72726;44.842;37.556;2023-12-14T02:20:21;6.97;89.61
79016;DHT22;72726;44.842;37.556;2023-12-14T02:21:23;6.94;89.66
79016;DHT22;72726;44.842;37.556;2023-12-14T02:22:24;6.95;89.63
79016;DHT22;72726;44.842;37.556;2023-12-14T02:23:26;6.94;89.70
79016;DHT22;72726;44.842;37.556;2023-12-14T02:24:27;6.95;89.66
79016;DHT22;72726;44.842;37.556;2023-12-14T02:25:29;6.95;89.66
79016;DHT22;72726;44.842;37.556;2023-12-14T02:26:31;6.92;89.65
79016;DHT22;72726;44.842;37.556;2023-12-14T02:27:32;6.92;89.59
79016;DHT22;72726;44.842;37.556;2023-12-14T02:28:34;6.97;89.50
79016;DHT22;72726;44.842;37.556;2023-12-14T02:29:35;6.97;89.42
79016;DHT22;72726;44.842;37.556;2023-12-14T02:30:37;6.92;89.45
79016;DHT22;72726;44.842;37.556;2023-12-14T02:31:39;6.91;89.45
79016;DHT22;72726;44.842;37.556;2023-12-14T02:32:40;6.91;89.40
79016;DHT22;72726;44.842;37.556;2023-12-14T02:33:42;6.88;89.46
79016;DHT22;72726;44.842;37.556;2023-12-14T02:34:44;6.90;89.47
79016;DHT22;72726;44.842;37.556;2023-12-14T02:35:45;6.91;89.52
79016;DHT22;72726;44.842;37.556;2023-12-14T02:36:47;6.90;89.52
79016;DHT22;72726;44.842;37.556;2023-12-14T02:37:48;6.92;89.62
79016;DHT22;72726;44.842;37.556;2023-12-14T02:38:50;6.91;89.66
79016;DHT22;72726;44.842;37.556;2023-12-14T02:39:51;6.92;89.71
79016;DHT22;72726;44.842;37.556;2023-12-14T02:40:53;6.92;89.74
79016;DHT22;72726;44.842;37.556;2023-12-14T02:41:55;6.94;89.73
79016;DHT22;72726;44.842;37.556;2023-12-14T02:42:56;6.94;89.74
79016;DHT22;72726;44.842;37.556;2023-12-14T02:43:58;6.92;89.77
79016;DHT22;72726;44.842;37.556;2023-12-14T02:45:00;6.92;89.72
79016;DHT22;72726;44.842;37.556;2023-12-14T02:46:05;6.98;89.77
79016;DHT22;72726;44.842;37.556;2023-12-14T02:47:07;6.98;89.76
79016;DHT22;72726;44.842;37.556;2023-12-14T02:48:08;6.97;89.72
79016;DHT22;72726;44.842;37.556;2023-12-14T02:49:10;6.98;89.62
79016;DHT22;72726;44.842;37.556;2023-12-14T02:50:12;7.01;89.59
79016;DHT22;72726;44.842;37.556;2023-12-14T02:51:14;7.01;89.51
79016;DHT22;72726;44.842;37.556;2023-12-14T02:52:16;7.00;89.47
79016;DHT22;72726;44.842;37.556;2023-12-14T02:53:18;7.01;89.40
79016;DHT22;72726;44.842;37.556;2023-12-14T02:54:19;7.00;89.38
79016;DHT22;72726;44.842;37.556;2023-12-14T02:55:21;7.00;89.31
79016;DHT22;72726;44.842;37.556;2023-12-14T02:56:22;6.98;89.25
79016;DHT22;72726;44.842;37.556;2023-12-14T02:57:25;6.97;89.24
79016;DHT22;72726;44.842;37.556;2023-12-14T02:58:27;6.98;89.19
79016;DHT22;72726;44.842;37.556;2023-12-14T02:59:28;6.98;89.23
79016;DHT22;72726;44.842;37.556;2023-12-14T03:00:30;6.97;89.16
79016;DHT22;72726;44.842;37.556;2023-12-14T03:01:32;6.98;89.09
79016;DHT22;72726;44.842;37.556;2023-12-14T03:02:34;6.97;88.86
79016;DHT22;72726;44.842;37.556;2023-12-14T03:03:38;6.92;88.89
79016;DHT22;72726;44.842;37.556;2023-12-14T03:04:40;6.95;88.83
79016;DHT22;72726;44.842;37.556;2023-12-14T03:05:42;6.92;88.82
79016;DHT22;72726;44.842;37.556;2023-12-14T03:06:43;6.94;88.88
79016;DHT22;72726;44.842;37.556;2023-12-14T03:07:45;6.95;88.94
79016;DHT22;72726;44.842;37.556;2023-12-14T03:08:46;6.90;88.95
79016;DHT22;72726;44.842;37.556;2023-12-14T03:09:48;6.92;88.96
79016;DHT22;72726;44.842;37.556;2023-12-14T03:10:49;6.95;88.93
79016;DHT22;72726;44.842;37.556;2023-12-14T03:11:51;6.92;88.93
79016;DHT22;72726;44.842;37.556;2023-12-14T03:12:52;6.94;88.84
79016;DHT22;72726;44.842;37.556;2023-12-14T03:13:54;6.94;88.89
79016;DHT22;72726;44.842;37.556;2023-12-14T03:14:55;6.95;88.89
79016;DHT22;72726;44.842;37.556;2023-12-14T03:15:57;6.95;88.76
79016;DHT22;72726;44.842;37.556;2023-12-14T03:16:59;6.97;88.67
79016;DHT22;72726;44.842;37.556;2023-12-14T03:18:01;6.92;88.68
79016;DHT22;72726;44.842;37.556;2023-12-14T03:19:04;6.95;88.60
79016;DHT22;72726;44.842;37.556;2023-12-14T03:20:07;6.94;88.64
79016;DHT22;72726;44.842;37.556;2023-12-14T03:21:09;6.91;88.72
79016;DHT22;72726;44.842;37.556;2023-12-14T03:22:11;6.94;88.74
79016;DHT22;72726;44.842;37.556;2023-12-14T03:23:12;6.94;88.80
79016;DHT22;72726;44.842;37.556;2023-12-14T03:24:14;6.97;88.82
79016;DHT22;72726;44.842;37.556;2023-12-14T03:25:15;6.97;88.74
79016;DHT22;72726;44.842;37.556;2023-12-14T03:26:18;6.97;88.69
79016;DHT22;72726;44.842;37.556;2023-12-14T03:27:19;6.97;88.61
79016;DHT22;72726;44.842;37.556;2023-12-14T03:28:23;6.95;88.58
79016;DHT22;72726;44.842;37.556;2023-12-14T03:29:25;6.92;88.63
79016;DHT22;72726;44.842;37.556;2023-12-14T03:30:27;6.95;88.61
79016;DHT22;72726;44.842;37.556;2023-12-14T03:31:28;6.91;88.57
79016;DHT22;72726;44.842;37.556;2023-12-14T03:32:30;6.94;88.56
79016;DHT22;72726;44.842;37.556;2023-12-14T03:33:31;6.90;88.53
79016;DHT22;72726;44.842;37.556;2023-12-14T03:34:33;6.92;88.51
79016;DHT22;72726;44.842;37.556;2023-12-14T03:35:35;6.90;88.47
79016;DHT22;72726;44.842;37.556;2023-12-14T03:36:37;6.91;88.49
79016;DHT22;72726;44.842;37.556;2023-12-14T03:37:38;6.90;88.54
79016;DHT22;72726;44.842;37.556;2023-12-14T03:38:40;6.87;88.59
79016;DHT22;72726;44.842;37.556;2023-12-14T03:39:42;6.88;88.55
79016;DHT22;72726;44.842;37.556;2023-12-14T03:40:43;6.90;88.58
79016;DHT22;72726;44.842;37.556;2023-12-14T03:41:45;6.85;88.67
79016;DHT22;72726;44.842;37.556;2023-12-14T03:42:47;6.85;88.65
79016;DHT22;72726;44.842;37.556;2023-12-14T03:43:48;6.87;88.64
79016;DHT22;72726;44.842;37.556;2023-12-14T03:44:50;6.88;88.66
79016;DHT22;72726;44.842;37.556;2023-12-14T03:45:52;6.85;88.63
79016;DHT22;72726;44.842;37.556;2023-12-14T03:46:53;6.85;88.64
79016;DHT22;72726;44.842;37.556;2023-12-14T03:47:55;6.85;88.68
79016;DHT22;72726;44.842;37.556;2023-12-14T03:48:57;6.85;88.74
79016;DHT22;72726;44.842;37.556;2023-12-14T03:50:01;6.85;88.69
79016;DHT22;72726;44.842;37.556;2023-12-14T03:51:03;6.85;88.70
79016;DHT22;72726;44.842;37.556;2023-12-14T03:52:05;6.85;88.61
79016;DHT22;72726;44.842;37.556;2023-12-14T03:53:07;6.85;88.67
79016;DHT22;72726;44.842;37.556;2023-12-14T03:54:09;6.85;88.62
79016;DHT22;72726;44.842;37.556;2023-12-14T03:55:10;6.83;88.63
79016;DHT22;72726;44.842;37.556;2023-12-14T03:56:12;6.84;88.67
79016;DHT22;72726;44.842;37.556;2023-12-14T03:57:13;6.85;88.73
79016;DHT22;72726;44.842;37.556;2023-12-14T03:58:15;6.84;88.70
79016;DHT22;72726;44.842;37.556;2023-12-14T03:59:16;6.88;88.74
79016;DHT22;72726;44.842;37.556;2023-12-14T04:00:18;6.87;88.78
79016;DHT22;72726;44.842;37.556;2023-12-14T04:01:20;6.88;88.66
79016;DHT22;72726;44.842;37.556;2023-12-14T04:02:22;6.85;88.54
79016;DHT22;72726;44.842;37.556;2023-12-14T04:03:24;6.85;88.58
79016;DHT22;72726;44.842;37.556;2023-12-14T04:04:25;6.84;88.60
79016;DHT22;72726;44.842;37.556;2023-12-14T04:05:27;6.83;88.61
79016;DHT22;72726;44.842;37.556;2023-12-14T04:06:28;6.83;88.64
79016;DHT22;72726;44.842;37.556;2023-12-14T04:07:30;6.83;88.73
79016;DHT22;72726;44.842;37.556;2023-12-14T04:08:31;6.83;88.68
79016;DHT22;72726;44.842;37.556;2023-12-14T04:09:33;6.83;88.68
79016;DHT22;72726;44.842;37.556;2023-12-14T04:10:34;6.84;88.66
79016;DHT22;72726;44.842;37.556;2023-12-14T04:11:36;6.83;88.67
79016;DHT22;72726;44.842;37.556;2023-12-14T04:12:38;6.84;88.69
79016;DHT22;72726;44.842;37.556;2023-12-14T04:13:40;6.83;88.77
79016;DHT22;72726;44.842;37.556;2023-12-14T04:14:42;6.85;88.81
79016;DHT22;72726;44.842;37.556;2023-12-14T04:15:43;6.83;88.72
79016;DHT22;72726;44.842;37.556;2023-12-14T04:16:45;6.83;88.85
79016;DHT22;72726;44.842;37.556;2023-12-14T04:17:46;6.84;88.86
79016;DHT22;72726;44.842;37.556;2023-12-14T04:18:49;6.85;88.99
79016;DHT22;72726;44.842;37.556;2023-12-14T04:19:50;6.87;89.04
79016;DHT22;72726;44.842;37.556;2023-12-14T04:20:52;6.90;89.03
79016;DHT22;72726;44.842;37.556;2023-12-14T04:21:53;6.88;89.10
79016;DHT22;72726;44.842;37.556;2023-12-14T04:22:55;6.91;89.18
79016;DHT22;72726;44.842;37.556;2023-12-14T04:23:56;6.92;89.18
79016;DHT22;72726;44.842;37.556;2023-12-14T04:24:58;6.92;89.25
79016;DHT22;72726;44.842;37.556;2023-12-14T04:26:00;6.92;89.32
79016;DHT22;72726;44.842;37.556;2023-12-14T04:27:02;6.92;89.37
79016;DHT22;72726;44.842;37.556;2023-12-14T04:28:03;6.97;89.46
79016;DHT22;72726;44.842;37.556;2023-12-14T04:29:06;7.01;89.49
79016;DHT22;72726;44.842;37.556;2023-12-14T04:30:08;7.02;89.49
79016;DHT22;72726;44.842;37.556;2023-12-14T04:31:12;7.04;89.64
79016;DHT22;72726;44.842;37.556;2023-12-14T04:32:14;7.09;89.74
79016;DHT22;72726;44.842;37.556;2023-12-14T04:33:16;7.11;89.68
79016;DHT22;72726;44.842;37.556;2023-12-14T04:34:17;7.11;89.63
79016;DHT22;72726;44.842;37.556;2023-12-14T04:35:20;7.12;89.60
79016;DHT22;72726;44.842;37.556;2023-12-14T04:36:23;7.15;89.56
79016;DHT22;72726;44.842;37.556;2023-12-14T04:37:25;7.18;89.49
79016;DHT22;72726;44.842;37.556;2023-12-14T04:38:26;7.16;89.37
79016;DHT22;72726;44.842;37.556;2023-12-14T04:39:28;7.15;89.27
79016;DHT22;72726;44.842;37.556;2023-12-14T04:40:29;7.14;89.17
79016;DHT22;72726;44.842;37.556;2023-12-14T04:41:31;7.14;89.01
79016;DHT22;72726;44.842;37.556;2023-12-14T04:42:32;7.11;88.96
79016;DHT22;72726;44.842;37.556;2023-12-14T04:43:34;7.09;89.03
79016;DHT22;72726;44.842;37.556;2023-12-14T04:44:36;7.14;89.01
79016;DHT22;72726;44.842;37.556;2023-12-14T04:45:37;7.12;89.03
79016;DHT22;72726;44.842;37.556;2023-12-14T04:46:39;7.15;89.23
79016;DHT22;72726;44.842;37.556;2023-12-14T04:47:40;7.19;89.24
79016;DHT22;72726;44.842;37.556;2023-12-14T04:48:42;7.19;89.30
79016;DHT22;72726;44.842;37.556;2023-12-14T04:49:44;7.23;89.33
79016;DHT22;72726;44.842;37.556;2023-12-14T04:50:46;7.28;89.30
79016;DHT22;72726;44.842;37.556;2023-12-14T04:51:48;7.28;89.24
79016;DHT22;72726;44.842;37.556;2023-12-14T04:52:49;7.30;89.19
79016;DHT22;72726;44.842;37.556;2023-12-14T04:53:51;7.35;89.11
79016;DHT22;72726;44.842;37.556;2023-12-14T04:54:52;7.37;89.08
79016;DHT22;72726;44.842;37.556;2023-12-14T04:55:54;7.39;88.90
79016;DHT22;72726;44.842;37.556;2023-12-14T04:56:55;7.43;88.87
79016;DHT22;72726;44.842;37.556;2023-12-14T04:57:57;7.40;88.78
79016;DHT22;72726;44.842;37.556;2023-12-14T04:58:59;7.43;88.79
79016;DHT22;72726;44.842;37.556;2023-12-14T05:00:00;7.43;88.72
79016;DHT22;72726;44.842;37.556;2023-12-14T05:01:02;7.46;88.58
79016;DHT22;72726;44.842;37.556;2023-12-14T05:02:05;7.47;88.49
79016;DHT22;72726;44.842;37.556;2023-12-14T05:03:06;7.45;88.47
79016;DHT22;72726;44.842;37.556;2023-12-14T05:04:08;7.47;88.41
79016;DHT22;72726;44.842;37.556;2023-12-14T05:05:09;7.49;88.35
79016;DHT22;72726;44.842;37.556;2023-12-14T05:06:11;7.47;88.25
79016;DHT22;72726;44.842;37.556;2023-12-14T05:07:13;7.47;88.24
79016;DHT22;72726;44.842;37.556;2023-12-14T05:08:14;7.46;88.10
79016;DHT22;72726;44.842;37.556;2023-12-14T05:09:16;7.49;88.04
79016;DHT22;72726;44.842;37.556;2023-12-14T05:10:17;7.49;87.99
79016;DHT22;72726;44.842;37.556;2023-12-14T05:11:19;7.49;88.07
79016;DHT22;72726;44.842;37.556;2023-12-14T05:12:21;7.52;88.06
79016;DHT22;72726;44.842;37.556;2023-12-14T05:13:22;7.50;88.17
79016;DHT22;72726;44.842;37.556;2023-12-14T05:14:24;7.54;88.27
79016;DHT22;72726;44.842;37.556;2023-12-14T05:15:25;7.54;88.29
79016;DHT22;72726;44.842;37.556;2023-12-14T05:16:27;7.54;88.29
79016;DHT22;72726;44.842;37.556;2023-12-14T05:17:29;7.57;88.27
79016;DHT22;72726;44.842;37.556;2023-12-14T05:18:31;7.63;88.19
79016;DHT22;72726;44.842;37.556;2023-12-14T05:19:33;7.62;88.15
79016;DHT22;72726;44.842;37.556;2023-12-14T05:20:35;7.66;88.19
79016;DHT22;72726;44.842;37.556;2023-12-14T05:21:37;7.64;88.12
79016;DHT22;72726;44.842;37.556;2023-12-14T05:22:39;7.66;88.14
79016;DHT22;72726;44.842;37.556;2023-12-14T05:23:40;7.67;88.11
79016;DHT22;72726;44.842;37.556;2023-12-14T05:24:46;7.67;88.11
79016;DHT22;72726;44.842;37.556;2023-12-14T05:25:48;7.71;88.05
79016;DHT22;72726;44.842;37.556;2023-12-14T05:26:50;7.73;88.03
79016;DHT22;72726;44.842;37.556;2023-12-14T05:27:51;7.75;87.92
79016;DHT22;72726;44.842;37.556;2023-12-14T05:28:53;7.75;87.82
79016;DHT22;72726;44.842;37.556;2023-12-14T05:29:55;7.75;87.87
79016;DHT22;72726;44.842;37.556;2023-12-14T05:30:56;7.78;87.84
79016;DHT22;72726;44.842;37.556;2023-12-14T05:31:58;7.78;87.77
79016;DHT22;72726;44.842;37.556;2023-12-14T05:32:59;7.83;87.77
79016;DHT22;72726;44.842;37.556;2023-12-14T05:34:01;7.83;87.72
79016;DHT22;72726;44.842;37.556;2023-12-14T05:35:04;7.84;87.73
79016;DHT22;72726;44.842;37.556;2023-12-14T05:36:08;7.88;87.63
79016;DHT22;72726;44.842;37.556;2023-12-14T05:37:11;7.88;87.51
79016;DHT22;72726;44.842;37.556;2023-12-14T05:38:13;7.91;87.52
79016;DHT22;72726;44.842;37.556;2023-12-14T05:39:14;7.92;87.44
79016;DHT22;72726;44.842;37.556;2023-12-14T05:40:16;7.92;87.39
79016;DHT22;72726;44.842;37.556;2023-12-14T05:41:17;7.92;87.44
79016;DHT22;72726;44.842;37.556;2023-12-14T05:42:19;7.97;87.45
79016;DHT22;72726;44.842;37.556;2023-12-14T05:43:21;7.97;87.41
79016;DHT22;72726;44.842;37.556;2023-12-14T05:44:22;7.99;87.34
79016;DHT22;72726;44.842;37.556;2023-12-14T05:45:24;7.98;87.36
79016;DHT22;72726;44.842;37.556;2023-12-14T05:46:25;8.02;87.42
79016;DHT22;72726;44.842;37.556;2023-12-14T05:47:27;8.03;87.36
79016;DHT22;72726;44.842;37.556;2023-12-14T05:48:29;8.08;87.32
79016;DHT22;72726;44.842;37.556;2023-12-14T05:49:31;8.11;87.22
79016;DHT22;72726;44.842;37.556;2023-12-14T05:50:32;8.13;87.28
79016;DHT22;72726;44.842;37.556;2023-12-14T05:51:34;8.16;87.28
79016;DHT22;72726;44.842;37.556;2023-12-14T05:52:36;8.19;87.28
79016;DHT22;72726;44.842;37.556;2023-12-14T05:53:39;8.19;87.17
79016;DHT22;72726;44.842;37.556;2023-12-14T05:54:40;8.22;87.11
79016;DHT22;72726;44.842;37.556;2023-12-14T05:55:42;8.22;87.10
79016;DHT22;72726;44.842;37.556;2023-12-14T05:56:44;8.28;87.13
79016;DHT22;72726;44.842;37.556;2023-12-14T05:57:45;8.32;87.03
79016;DHT22;72726;44.842;37.556;2023-12-14T05:58:47;8.30;86.96
79016;DHT22;72726;44.842;37.556;2023-12-14T05:59:50;8.32;86.96
79016;DHT22;72726;44.842;37.556;2023-12-14T06:00:52;8.36;86.97
79016;DHT22;72726;44.842;37.556;2023-12-14T06:01:58;8.40;86.93
79016;DHT22;72726;44.842;37.556;2023-12-14T06:03:00;8.43;86.77
79016;DHT22;72726;44.842;37.556;2023-12-14T06:04:02;8.45;86.47
79016;DHT22;72726;44.842;37.556;2023-12-14T06:05:03;8.45;86.61
79016;DHT22;72726;44.842;37.556;2023-12-14T06:06:05;8.47;86.72
79016;DHT22;72726;44.842;37.556;2023-12-14T06:07:07;8.49;86.68
79016;DHT22;72726;44.842;37.556;2023-12-14T06:08:09;8.54;86.66
79016;DHT22;72726;44.842;37.556;2023-12-14T06:09:10;8.57;86.58
79016;DHT22;72726;44.842;37.556;2023-12-14T06:10:12;8.64;86.52
79016;DHT22;72726;44.842;37.556;2023-12-14T06:11:13;8.70;86.39
79016;DHT22;72726;44.842;37.556;2023-12-14T06:12:15;8.74;86.34
79016;DHT22;72726;44.842;37.556;2023-12-14T06:13:17;8.81;86.28
79016;DHT22;72726;44.842;37.556;2023-12-14T06:14:18;8.83;86.06
79016;DHT22;72726;44.842;37.556;2023-12-14T06:15:20;8.87;85.91
79016;DHT22;72726;44.842;37.556;2023-12-14T06:16:22;8.89;85.86
79016;DHT22;72726;44.842;37.556;2023-12-14T06:17:24;8.94;85.86
79016;DHT22;72726;44.842;37.556;2023-12-14T06:18:25;8.98;85.66
79016;DHT22;72726;44.842;37.556;2023-12-14T06:19:27;9.00;85.58
79016;DHT22;72726;44.842;37.556;2023-12-14T06:20:29;9.04;85.41
79016;DHT22;72726;44.842;37.556;2023-12-14T06:21:31;9.05;85.24
79016;DHT22;72726;44.842;37.556;2023-12-14T06:22:32;9.08;85.32
79016;DHT22;72726;44.842;37.556;2023-12-14T06:23:35;9.12;85.24
79016;DHT22;72726;44.842;37.556;2023-12-14T06:24:37;9.10;85.18
79016;DHT22;72726;44.842;37.556;2023-12-14T06:25:42;9.15;85.16
79016;DHT22;72726;44.842;37.556;2023-12-14T06:26:45;9.18;84.97
79016;DHT22;72726;44.842;37.556;2023-12-14T06:27:46;9.18;85.07
79016;DHT22;72726;44.842;37.556;2023-12-14T06:28:48;9.23;85.01
79016;DHT22;72726;44.842;37.556;2023-12-14T06:29:49;9.22;85.02
79016;DHT22;72726;44.842;37.556;2023-12-14T06:30:51;9.28;85.03